Time;durP1;ratioP1;P1;durP2;ratioP2;P2;SDS_P1;SDS_P2;PMS_P1;PMS_P2;Temp;Humidity;BMP_temperature;BMP_pressure;BME280_temperature;BME280_humidity;BME280_pressure;Samples;Min_cycle;Max_cycle;Signal;HPM_P1;HPM_P2
2022/05/13 00:00:57;;;;;;;1.95;1.00;;;4.20;99.90;;;;;;5076041;28;20281;-74
2022/05/13 00:03:22;;;;;;;0.60;0.60;;;4.10;99.90;;;;;;5075680;28;20205;-73
2022/05/13 00:05:51;;;;;;;0.70;0.70;;;4.10;99.90;;;;;;5075877;28;20213;-74
2022/05/13 00:08:16;;;;;;;0.60;0.60;;;4.00;99.90;;;;;;5075906;28;20272;-74
2022/05/13 00:10:43;;;;;;;0.70;0.70;;;4.00;99.90;;;;;;5075733;28;20291;-74
2022/05/13 00:13:09;;;;;;;0.70;0.70;;;4.10;99.90;;;;;;5075673;28;20667;-74
2022/05/13 00:15:36;;;;;;;0.70;0.70;;;4.00;99.90;;;;;;5056516;28;20205;-74
2022/05/13 00:18:02;;;;;;;0.60;0.60;;;4.00;99.90;;;;;;5062060;28;20613;-74
2022/05/13 00:20:28;;;;;;;1.15;1.00;;;4.00;99.90;;;;;;5075517;28;20200;-74
2022/05/13 00:22:57;;;;;;;0.70;0.70;;;4.00;99.90;;;;;;5073275;28;20575;-74
2022/05/13 00:25:27;;;;;;;0.70;0.70;;;3.90;99.90;;;;;;5075631;28;20208;-74
2022/05/13 00:27:58;;;;;;;1.25;0.90;;;3.90;99.90;;;;;;5074423;28;20196;-74
2022/05/13 00:30:24;;;;;;;0.60;0.60;;;3.80;99.90;;;;;;5073955;28;20341;-74
2022/05/13 00:32:50;;;;;;;0.70;0.70;;;3.80;99.90;;;;;;5074098;28;20694;-74
2022/05/13 00:35:17;;;;;;;0.68;0.68;;;3.90;99.90;;;;;;5075260;28;20193;-74
2022/05/13 00:37:43;;;;;;;0.70;0.70;;;3.90;99.90;;;;;;5075046;28;20526;-74
2022/05/13 00:40:11;;;;;;;0.77;0.77;;;3.90;99.90;;;;;;5070150;28;20680;-74
2022/05/13 00:42:37;;;;;;;0.77;0.77;;;3.90;99.90;;;;;;5055358;28;20292;-73
2022/05/13 00:45:04;;;;;;;0.70;0.70;;;3.90;99.90;;;;;;5055234;28;20209;-74
2022/05/13 00:47:30;;;;;;;0.60;0.60;;;3.90;99.90;;;;;;5054948;28;20238;-74
2022/05/13 00:49:58;;;;;;;0.70;0.70;;;3.90;99.90;;;;;;5055081;28;20282;-73
2022/05/13 00:52:24;;;;;;;0.70;0.70;;;3.90;99.90;;;;;;5066648;28;20335;-73
2022/05/13 00:54:50;;;;;;;0.80;0.80;;;3.90;99.90;;;;;;5075213;28;20193;-73
2022/05/13 00:57:17;;;;;;;0.60;0.60;;;4.00;99.90;;;;;;5075064;28;20226;-72
2022/05/13 00:59:44;;;;;;;0.60;0.60;;;4.10;99.90;;;;;;5074868;28;20192;-75
2022/05/13 01:02:11;;;;;;;0.70;0.70;;;4.10;99.90;;;;;;5073123;28;20199;-72
2022/05/13 01:04:38;;;;;;;0.63;0.63;;;4.20;99.90;;;;;;5074680;28;20749;-72
2022/05/13 01:07:09;;;;;;;0.90;0.90;;;4.20;99.90;;;;;;5075107;28;20199;-72
2022/05/13 01:09:40;;;;;;;0.70;0.70;;;4.30;99.90;;;;;;5073666;28;20185;-72
2022/05/13 01:12:10;;;;;;;0.75;0.75;;;4.30;99.90;;;;;;5054314;28;20718;-73
2022/05/13 01:14:40;;;;;;;0.80;0.80;;;4.40;99.90;;;;;;5065349;28;20203;-71
2022/05/13 01:20:14;;;;;;;0.68;0.68;;;4.40;99.90;;;;;;5074653;28;20257;-70
2022/05/13 01:22:46;;;;;;;0.70;0.70;;;4.50;99.90;;;;;;5073373;28;20633;-70
2022/05/13 01:25:15;;;;;;;0.70;0.70;;;4.50;99.90;;;;;;5072693;28;20215;-71
2022/05/13 01:27:45;;;;;;;0.70;0.70;;;4.40;99.90;;;;;;5073516;28;20185;-71
2022/05/13 01:30:19;;;;;;;0.70;0.70;;;4.30;99.90;;;;;;5071639;28;20229;-71
2022/05/13 01:32:45;;;;;;;0.70;0.70;;;4.30;99.90;;;;;;5073527;28;20232;-70
2022/05/13 01:35:11;;;;;;;2.38;1.77;;;4.30;99.90;;;;;;5073493;28;20201;-71
2022/05/13 01:37:37;;;;;;;0.70;0.70;;;4.30;99.90;;;;;;5058514;28;20612;-70
2022/05/13 01:40:04;;;;;;;0.80;0.80;;;4.30;99.90;;;;;;5053895;28;20202;-70
2022/05/13 01:42:32;;;;;;;0.60;0.60;;;4.20;99.90;;;;;;5053483;28;20228;-70
2022/05/13 01:44:58;;;;;;;0.70;0.70;;;4.40;99.90;;;;;;5052106;28;20209;-71
2022/05/13 01:47:25;;;;;;;0.70;0.70;;;4.30;99.90;;;;;;5055174;28;20303;-71
2022/05/13 01:49:51;;;;;;;3.60;1.88;;;4.20;99.90;;;;;;5092812;28;20724;-70
2022/05/13 01:52:18;;;;;;;0.70;0.70;;;4.10;99.90;;;;;;5093667;28;20504;-71
2022/05/13 01:54:44;;;;;;;0.70;0.70;;;4.00;99.90;;;;;;5093659;28;20195;-72
2022/05/13 01:57:10;;;;;;;0.80;0.80;;;4.00;99.90;;;;;;5093624;28;20200;-71
2022/05/13 01:59:35;;;;;;;0.70;0.70;;;3.90;99.90;;;;;;5093527;28;20196;-71
2022/05/13 02:02:01;;;;;;;0.70;0.70;;;3.80;99.90;;;;;;5062339;28;20198;-70
2022/05/13 02:04:27;;;;;;;0.60;0.60;;;3.70;99.90;;;;;;5052741;28;20198;-71
2022/05/13 02:06:53;;;;;;;0.70;0.70;;;3.70;99.90;;;;;;5062048;28;20540;-71
2022/05/13 02:09:18;;;;;;;0.70;0.70;;;3.60;99.90;;;;;;5072892;28;20195;-71
2022/05/13 02:11:46;;;;;;;0.70;0.70;;;3.60;99.90;;;;;;5072822;28;20213;-69
2022/05/13 02:14:13;;;;;;;0.70;0.70;;;3.50;99.90;;;;;;5073040;28;20195;-71
2022/05/13 02:16:39;;;;;;;0.70;0.70;;;3.60;99.90;;;;;;5072982;28;20250;-71
2022/05/13 02:19:05;;;;;;;0.70;0.70;;;3.50;99.90;;;;;;5072900;28;20201;-71
2022/05/13 02:21:30;;;;;;;0.70;0.70;;;3.50;99.90;;;;;;5072341;28;20687;-71
2022/05/13 02:23:56;;;;;;;0.70;0.70;;;3.40;99.90;;;;;;5073225;28;20297;-71
2022/05/13 02:26:22;;;;;;;0.70;0.70;;;3.40;99.90;;;;;;5072543;28;20232;-71
2022/05/13 02:28:48;;;;;;;0.90;0.90;;;3.30;99.90;;;;;;5071641;28;20232;-71
2022/05/13 02:31:14;;;;;;;0.70;0.70;;;3.30;99.90;;;;;;5072854;28;20603;-70
2022/05/13 02:33:41;;;;;;;0.70;0.70;;;3.20;99.90;;;;;;5072567;28;20684;-70
2022/05/13 02:36:07;;;;;;;0.70;0.70;;;3.30;99.90;;;;;;5072783;28;20280;-71
2022/05/13 02:38:33;;;;;;;1.40;1.02;;;3.20;99.90;;;;;;5071416;28;20197;-70
2022/05/13 02:41:11;;;;;;;1.52;1.42;;;3.20;99.90;;;;;;5072656;28;20283;-71
2022/05/13 02:43:54;;;;;;;0.70;0.70;;;3.20;99.90;;;;;;5075500;28;20196;-71
2022/05/13 02:46:24;;;;;;;0.70;0.70;;;3.20;99.90;;;;;;5076628;28;20200;-71
2022/05/13 02:48:49;;;;;;;0.70;0.70;;;3.10;99.90;;;;;;5077064;28;20566;-71
2022/05/13 02:51:16;;;;;;;0.80;0.80;;;3.10;99.90;;;;;;5076923;28;20201;-71
2022/05/13 02:53:42;;;;;;;0.70;0.70;;;3.10;99.90;;;;;;5076672;28;20275;-70
2022/05/13 02:56:08;;;;;;;0.80;0.80;;;3.10;99.90;;;;;;5076715;28;20197;-71
2022/05/13 02:58:38;;;;;;;0.70;0.70;;;3.20;99.90;;;;;;5077079;28;20197;-69
2022/05/13 03:01:06;;;;;;;0.70;0.70;;;3.20;99.90;;;;;;5067820;28;20208;-71
2022/05/13 03:03:31;;;;;;;0.80;0.80;;;3.20;99.90;;;;;;5065506;28;20202;-70
2022/05/13 03:05:57;;;;;;;0.70;0.70;;;3.30;99.90;;;;;;5076045;28;20671;-70
2022/05/13 03:08:23;;;;;;;0.80;0.80;;;3.30;99.90;;;;;;5076177;28;20604;-70
2022/05/13 03:10:49;;;;;;;0.70;0.70;;;3.30;99.90;;;;;;5076552;28;20189;-70
2022/05/13 03:13:18;;;;;;;0.68;0.68;;;3.30;99.90;;;;;;5076216;28;20216;-70
2022/05/13 03:15:44;;;;;;;1.85;1.00;;;3.30;99.90;;;;;;5076209;28;20197;-71
2022/05/13 03:18:10;;;;;;;0.70;0.70;;;3.30;99.90;;;;;;5075116;28;20576;-71
2022/05/13 03:20:36;;;;;;;0.70;0.70;;;3.30;99.90;;;;;;5076265;28;20219;-71
2022/05/13 03:23:03;;;;;;;0.70;0.70;;;3.30;99.90;;;;;;5075677;28;20205;-70
2022/05/13 03:25:28;;;;;;;0.80;0.80;;;3.40;99.90;;;;;;5074763;28;20299;-70
2022/05/13 03:27:54;;;;;;;0.65;0.65;;;3.40;99.90;;;;;;5076169;28;20232;-70
2022/05/13 03:30:23;;;;;;;0.70;0.70;;;3.40;99.90;;;;;;5074258;28;20621;-71
2022/05/13 03:32:49;;;;;;;0.60;0.60;;;3.40;99.90;;;;;;5076020;28;20213;-71
2022/05/13 03:35:16;;;;;;;0.60;0.60;;;3.30;99.90;;;;;;5076057;28;20200;-71
2022/05/13 03:37:43;;;;;;;0.70;0.70;;;3.30;99.90;;;;;;5074872;28;20200;-71
2022/05/13 03:40:09;;;;;;;0.70;0.70;;;3.30;99.90;;;;;;5076171;28;20203;-70
2022/05/13 03:42:38;;;;;;;0.70;0.70;;;3.20;99.90;;;;;;5074452;28;20577;-70
2022/05/13 03:45:05;;;;;;;1.00;1.00;;;3.20;99.90;;;;;;5075823;28;20259;-71
2022/05/13 03:47:31;;;;;;;0.70;0.70;;;3.20;99.90;;;;;;5075690;28;20681;-70
2022/05/13 03:49:57;;;;;;;0.73;0.73;;;3.20;99.90;;;;;;5074449;28;20196;-71
2022/05/13 03:52:23;;;;;;;0.80;0.80;;;3.20;99.90;;;;;;5075208;28;20188;-71
2022/05/13 03:54:49;;;;;;;0.80;0.80;;;3.20;99.90;;;;;;5075126;28;20193;-71
2022/05/13 03:57:14;;;;;;;0.70;0.70;;;3.30;99.90;;;;;;5075957;28;20207;-71
2022/05/13 03:59:40;;;;;;;0.70;0.70;;;3.40;99.90;;;;;;5063814;28;20271;-71
2022/05/13 04:02:06;;;;;;;0.70;0.70;;;3.50;99.90;;;;;;5055995;28;20197;-71
2022/05/13 04:08:56;;;;;;;0.90;0.90;;;3.50;99.90;;;;;;5074065;28;20588;-70
2022/05/13 04:10:06;;;;;;;0.70;0.70;;;3.80;99.90;;;;;;5075388;28;20208;-70
2022/05/13 04:18:00;;;;;;;0.70;0.70;;;4.40;99.90;;;;;;5068062;28;20296;-70
2022/05/13 04:20:26;;;;;;;0.70;0.70;;;4.70;99.90;;;;;;5055061;28;20276;-70
2022/05/13 04:22:52;;;;;;;0.70;0.70;;;5.00;99.90;;;;;;5053214;28;20200;-70
2022/05/13 04:25:19;;;;;;;0.68;0.68;;;5.20;99.90;;;;;;5053299;28;20198;-70
2022/05/13 04:27:45;;;;;;;0.80;0.80;;;5.40;99.90;;;;;;5053514;28;20201;-70
2022/05/13 04:30:12;;;;;;;0.73;0.73;;;5.60;99.90;;;;;;5054935;28;20680;-70
2022/05/13 04:32:38;;;;;;;0.55;0.55;;;5.80;99.90;;;;;;5053105;28;20234;-71
2022/05/13 04:35:04;;;;;;;0.70;0.70;;;6.00;99.90;;;;;;5054669;28;20606;-70
2022/05/13 04:37:29;;;;;;;0.70;0.70;;;6.10;99.90;;;;;;5067033;28;20203;-70
2022/05/13 04:39:55;;;;;;;0.70;0.70;;;6.30;99.90;;;;;;5074720;28;20197;-70
2022/05/13 04:45:07;;;;;;;0.90;0.90;;;6.50;99.90;;;;;;5074662;28;20207;-71
2022/05/13 04:50:17;;;;;;;1.70;1.60;;;6.80;99.90;;;;;;5074380;28;20250;-70
2022/05/13 04:52:42;;;;;;;0.60;0.60;;;6.90;99.90;;;;;;5073040;28;20189;-70
2022/05/13 04:55:09;;;;;;;0.68;0.68;;;7.10;99.90;;;;;;5069253;28;20209;-70
2022/05/13 04:57:35;;;;;;;0.70;0.70;;;7.20;99.90;;;;;;5054135;28;20200;-69
2022/05/13 05:00:00;;;;;;;0.70;0.70;;;7.40;99.90;;;;;;5068557;28;20216;-68
2022/05/13 05:02:28;;;;;;;0.70;0.70;;;7.50;99.90;;;;;;5073750;28;20540;-67
2022/05/13 05:04:54;;;;;;;0.63;0.63;;;7.60;99.90;;;;;;5073351;28;20610;-67
2022/05/13 05:07:19;;;;;;;5.97;1.75;;;7.80;99.90;;;;;;5073826;28;20189;-69
2022/05/13 05:09:45;;;;;;;0.60;0.60;;;8.00;99.90;;;;;;5073998;28;20185;-68
2022/05/13 05:12:11;;;;;;;0.60;0.60;;;8.00;99.90;;;;;;5073893;28;20185;-69
2022/05/13 05:14:37;;;;;;;0.70;0.70;;;8.20;99.90;;;;;;5073482;28;20231;-70
2022/05/13 05:17:03;;;;;;;0.60;0.60;;;8.40;99.90;;;;;;5072764;28;20228;-69
2022/05/13 05:19:29;;;;;;;1.40;1.35;;;8.50;99.90;;;;;;5074000;28;20189;-69
2022/05/13 05:21:54;;;;;;;0.60;0.60;;;8.60;99.90;;;;;;5064341;28;20198;-69
2022/05/13 05:24:20;;;;;;;0.60;0.60;;;8.80;99.90;;;;;;5053716;28;20193;-70
2022/05/13 05:26:45;;;;;;;0.95;0.90;;;8.90;99.90;;;;;;5053823;28;20590;-69
2022/05/13 05:29:11;;;;;;;0.80;0.70;;;9.00;99.90;;;;;;5053811;28;20243;-70
2022/05/13 05:31:37;;;;;;;0.60;0.60;;;9.10;99.90;;;;;;5052288;28;20569;-69
2022/05/13 05:34:03;;;;;;;0.70;0.70;;;9.20;99.90;;;;;;5068721;28;20231;-70
2022/05/13 05:36:28;;;;;;;0.60;0.60;;;9.30;99.90;;;;;;5074064;28;20193;-70
2022/05/13 05:38:54;;;;;;;0.63;0.63;;;9.40;99.90;;;;;;5072280;28;20204;-70
2022/05/13 05:41:20;;;;;;;0.80;0.80;;;9.60;99.90;;;;;;5072070;28;20585;-72
2022/05/13 05:43:46;;;;;;;3.40;1.52;;;9.90;99.90;;;;;;5073391;28;20189;-70
2022/05/13 05:46:11;;;;;;;0.57;0.57;;;10.00;99.90;;;;;;5073212;28;20209;-70
2022/05/13 05:48:37;;;;;;;0.60;0.60;;;10.20;99.90;;;;;;5072809;28;20196;-71
2022/05/13 05:51:03;;;;;;;0.50;0.50;;;10.30;99.90;;;;;;5070767;28;20188;-71
2022/05/13 05:59:00;;;;;;;0.60;0.60;;;10.70;99.90;;;;;;5073128;28;20211;-70
2022/05/13 06:01:27;;;;;;;0.60;0.60;;;10.80;99.90;;;;;;5071300;28;20197;-71
2022/05/13 06:03:53;;;;;;;0.50;0.50;;;10.80;99.90;;;;;;5073006;28;20268;-71
2022/05/13 06:06:19;;;;;;;0.50;0.50;;;10.70;99.90;;;;;;5072929;28;20208;-71
2022/05/13 06:08:45;;;;;;;0.50;0.50;;;10.70;99.90;;;;;;5072966;28;20363;-71
2022/05/13 06:11:11;;;;;;;0.52;0.52;;;10.70;99.90;;;;;;5073054;28;20290;-71
2022/05/13 06:13:38;;;;;;;0.50;0.50;;;11.00;99.90;;;;;;5072844;28;20189;-71
2022/05/13 06:16:04;;;;;;;0.55;0.55;;;11.30;99.90;;;;;;5072743;28;20548;-71
2022/05/13 06:18:34;;;;;;;0.50;0.50;;;11.40;99.90;;;;;;5059279;28;20284;-71
2022/05/13 06:20:59;;;;;;;0.50;0.50;;;11.60;99.90;;;;;;5051263;28;20254;-71
2022/05/13 06:23:25;;;;;;;0.50;0.50;;;11.50;99.90;;;;;;5052785;28;20197;-69
2022/05/13 06:25:51;;;;;;;0.40;0.40;;;11.70;99.90;;;;;;5052916;28;20217;-70
2022/05/13 06:28:17;;;;;;;1.13;1.02;;;11.70;99.90;;;;;;5052799;28;20185;-71
2022/05/13 06:30:42;;;;;;;0.60;0.60;;;11.70;99.90;;;;;;5070059;28;20193;-71
2022/05/13 06:33:08;;;;;;;0.50;0.50;;;11.60;99.90;;;;;;5072898;28;20270;-71
2022/05/13 06:35:34;;;;;;;0.50;0.50;;;11.70;99.90;;;;;;5072647;28;20624;-71
2022/05/13 06:38:00;;;;;;;0.80;0.80;;;11.80;99.90;;;;;;5072807;28;20560;-71
2022/05/13 06:40:26;;;;;;;0.73;0.73;;;12.10;99.90;;;;;;5073073;28;20267;-71
2022/05/13 06:42:52;;;;;;;0.50;0.50;;;12.40;99.90;;;;;;5072083;28;20254;-72
2022/05/13 06:45:19;;;;;;;0.40;0.40;;;12.50;99.90;;;;;;5072728;28;20211;-71
2022/05/13 06:47:45;;;;;;;1.08;0.98;;;12.60;99.90;;;;;;5071568;28;20189;-73
2022/05/13 06:50:32;;;;;;;0.50;0.50;;;12.40;99.90;;;;;;5071606;28;20208;-71
2022/05/13 06:53:04;;;;;;;0.63;0.63;;;12.50;99.90;;;;;;5072684;28;20705;-72
2022/05/13 06:55:30;;;;;;;0.50;0.50;;;12.50;99.90;;;;;;5072086;28;20204;-71
2022/05/13 06:57:56;;;;;;;0.50;0.50;;;12.80;99.90;;;;;;5073138;28;20196;-72
2022/05/13 07:00:22;;;;;;;0.45;0.45;;;13.10;99.90;;;;;;5072626;28;20565;-73
2022/05/13 07:02:48;;;;;;;0.40;0.40;;;13.10;99.90;;;;;;5071586;28;20200;-72
2022/05/13 07:05:16;;;;;;;0.40;0.40;;;13.40;99.90;;;;;;5071799;28;20205;-72
2022/05/13 07:07:50;;;;;;;0.40;0.40;;;13.40;99.90;;;;;;5072784;28;20200;-73
2022/05/13 07:10:18;;;;;;;0.40;0.40;;;13.50;99.90;;;;;;5072763;28;20193;-72
2022/05/13 07:12:44;;;;;;;0.40;0.40;;;13.80;99.90;;;;;;5072745;28;20228;-72
2022/05/13 07:15:13;;;;;;;0.68;0.68;;;13.80;99.90;;;;;;5057047;28;20247;-74
2022/05/13 07:17:40;;;;;;;0.40;0.40;;;14.10;99.90;;;;;;5050857;28;20205;-74
2022/05/13 07:20:07;;;;;;;0.40;0.40;;;14.40;99.90;;;;;;5051196;28;20548;-74
2022/05/13 07:22:34;;;;;;;0.30;0.30;;;14.90;99.90;;;;;;5062555;28;20201;-75
2022/05/13 07:25:00;;;;;;;0.30;0.30;;;15.50;99.90;;;;;;5054991;28;20197;-74
2022/05/13 07:27:26;;;;;;;0.35;0.35;;;16.00;99.90;;;;;;5072596;28;20197;-75
2022/05/13 07:29:52;;;;;;;0.30;0.30;;;16.20;99.90;;;;;;5074457;28;20197;-74
2022/05/13 07:32:18;;;;;;;0.30;0.30;;;16.70;99.90;;;;;;5076101;28;20193;-74
2022/05/13 07:34:44;;;;;;;0.30;0.30;;;17.30;99.90;;;;;;5074725;28;20708;-74
2022/05/13 07:37:10;;;;;;;0.30;0.30;;;17.20;99.90;;;;;;5075006;28;20220;-74
2022/05/13 07:42:20;;;;;;;0.52;0.52;;;17.20;99.90;;;;;;5075598;28;20224;-72
2022/05/13 07:44:46;;;;;;;0.30;0.30;;;16.90;99.90;;;;;;5074254;28;20555;-75
2022/05/13 07:47:14;;;;;;;0.22;0.22;;;17.10;99.90;;;;;;5075848;28;20191;-74
2022/05/13 07:49:42;;;;;;;0.30;0.30;;;17.50;99.90;;;;;;5075257;28;21171;-74
2022/05/13 07:52:09;;;;;;;0.30;0.30;;;17.60;99.90;;;;;;5076335;28;20212;-74
2022/05/13 07:54:35;;;;;;;0.50;0.50;;;17.90;99.90;;;;;;5076425;28;20193;-75
2022/05/13 07:57:02;;;;;;;0.30;0.30;;;17.70;99.90;;;;;;5075976;28;20608;-74
2022/05/13 07:59:27;;;;;;;0.20;0.20;;;17.40;99.90;;;;;;5076006;28;20200;-74
2022/05/13 08:01:54;;;;;;;0.20;0.20;;;17.70;99.90;;;;;;5075469;28;20220;-75
2022/05/13 08:04:20;;;;;;;0.55;0.38;;;17.60;99.90;;;;;;5074679;28;20197;-75
2022/05/13 08:06:45;;;;;;;0.20;0.20;;;17.90;99.90;;;;;;5075911;28;20216;-76
2022/05/13 08:09:12;;;;;;;0.35;0.35;;;17.90;97.70;;;;;;5076315;28;20181;-76
2022/05/13 08:11:38;;;;;;;0.35;0.35;;;17.50;97.90;;;;;;5058349;28;20201;-75
2022/05/13 08:14:04;;;;;;;0.20;0.20;;;16.50;98.20;;;;;;5056180;28;20201;-75
2022/05/13 08:16:30;;;;;;;0.82;0.52;;;16.20;99.90;;;;;;5054211;28;20205;-75
2022/05/13 08:18:59;;;;;;;0.65;0.65;;;16.20;99.90;;;;;;5054320;28;20251;-75
2022/05/13 08:21:25;;;;;;;0.30;0.30;;;17.00;99.90;;;;;;5058928;28;20671;-75
2022/05/13 08:23:51;;;;;;;0.30;0.30;;;17.70;96.00;;;;;;5074278;28;20203;-75
2022/05/13 08:26:18;;;;;;;0.50;0.40;;;17.60;97.50;;;;;;5074116;28;20216;-73
2022/05/13 08:28:45;;;;;;;0.40;0.40;;;17.10;96.40;;;;;;5071000;28;20201;-75
2022/05/13 08:31:11;;;;;;;0.30;0.30;;;17.40;96.00;;;;;;5053883;28;20202;-75
2022/05/13 08:33:37;;;;;;;0.40;0.40;;;17.00;97.60;;;;;;5055088;28;20688;-75
2022/05/13 08:36:13;;;;;;;0.30;0.30;;;16.60;98.70;;;;;;5087098;28;20286;-74
2022/05/13 08:38:40;;;;;;;0.30;0.30;;;16.70;99.90;;;;;;5087934;28;20287;-75
2022/05/13 08:41:09;;;;;;;8.98;0.77;;;17.60;97.60;;;;;;5087082;28;20208;-75
2022/05/13 08:43:45;;;;;;;0.30;0.30;;;17.80;95.30;;;;;;5053698;28;20217;-75
2022/05/13 08:46:17;;;;;;;0.52;0.30;;;18.00;95.30;;;;;;5053661;28;20214;-74
2022/05/13 08:49:18;;;;;;;0.25;0.25;;;18.00;95.80;;;;;;5053315;28;20546;-75
2022/05/13 08:51:44;;;;;;;0.20;0.20;;;18.50;95.60;;;;;;5061184;28;20205;-73
2022/05/13 08:54:30;;;;;;;0.20;0.20;;;18.60;91.40;;;;;;5073969;28;20200;-76
2022/05/13 08:57:01;;;;;;;0.22;0.22;;;17.60;94.40;;;;;;5073526;28;20197;-75
2022/05/13 08:59:35;;;;;;;0.30;0.30;;;17.30;93.60;;;;;;5074328;28;20205;-75
2022/05/13 09:02:10;;;;;;;0.20;0.20;;;17.90;94.50;;;;;;5073232;28;20291;-75
2022/05/13 09:04:46;;;;;;;0.20;0.20;;;18.70;94.60;;;;;;5072875;28;20203;-76
2022/05/13 09:07:16;;;;;;;0.30;0.30;;;19.30;90.00;;;;;;5062607;28;20193;-75
2022/05/13 09:09:44;;;;;;;0.30;0.30;;;18.60;92.00;;;;;;5052898;28;20201;-76
2022/05/13 09:12:50;;;;;;;0.30;0.30;;;17.90;93.30;;;;;;5054246;28;20604;-75
2022/05/13 09:15:47;;;;;;;0.30;0.30;;;18.50;93.00;;;;;;5053342;28;20197;-75
2022/05/13 09:18:36;;;;;;;0.20;0.20;;;18.30;91.80;;;;;;5061644;28;20201;-75
2022/05/13 09:21:18;;;;;;;0.40;0.40;;;18.20;91.80;;;;;;5072087;28;20208;-75
2022/05/13 09:23:44;;;;;;;0.40;0.40;;;17.60;91.50;;;;;;5086554;28;20702;-75
2022/05/13 09:26:14;;;;;;;0.30;0.30;;;17.20;92.10;;;;;;5053861;28;20205;-75
2022/05/13 09:29:10;;;;;;;0.30;0.30;;;16.90;92.90;;;;;;5053637;28;20546;-75
2022/05/13 09:31:45;;;;;;;0.40;0.40;;;17.10;93.40;;;;;;5085868;28;20189;-75
2022/05/13 09:34:48;;;;;;;56.00;1.38;;;17.40;94.50;;;;;;5052097;28;20767;-75
2022/05/13 09:37:26;;;;;;;0.30;0.30;;;17.60;91.80;;;;;;5053114;28;20220;-75
2022/05/13 09:40:13;;;;;;;0.30;0.30;;;17.10;93.30;;;;;;5053605;28;20197;-75
2022/05/13 09:42:43;;;;;;;5.82;0.90;;;17.50;94.10;;;;;;5052019;28;20696;-75
2022/05/13 09:45:17;;;;;;;0.30;0.30;;;17.40;92.10;;;;;;5053338;28;20742;-76
2022/05/13 09:47:57;;;;;;;0.30;0.30;;;17.60;91.90;;;;;;5057463;28;20575;-76
2022/05/13 09:50:31;;;;;;;0.20;0.20;;;17.60;92.80;;;;;;5072343;28;20188;-75
2022/05/13 09:53:29;;;;;;;0.20;0.20;;;17.20;92.20;;;;;;5071863;28;20656;-76
2022/05/13 09:56:01;;;;;;;0.30;0.30;;;18.30;93.20;;;;;;5071891;28;20663;-76
2022/05/13 09:58:48;;;;;;;0.20;0.20;;;19.60;92.80;;;;;;5072850;28;20597;-75
2022/05/13 10:01:20;;;;;;;0.30;0.30;;;20.60;85.80;;;;;;5072939;28;20279;-76
2022/05/13 10:04:08;;;;;;;0.20;0.20;;;20.90;86.10;;;;;;5073078;28;20735;-77
2022/05/13 10:06:36;;;;;;;0.98;0.50;;;20.20;82.60;;;;;;5072269;28;20216;-76
2022/05/13 10:14:42;;;;;;;0.30;0.30;;;19.50;89.70;;;;;;5072678;28;20576;-77
2022/05/13 10:17:17;;;;;;;0.30;0.30;;;20.30;85.90;;;;;;5073562;28;20607;-76
2022/05/13 10:19:52;;;;;;;0.20;0.20;;;20.20;79.30;;;;;;5071826;28;20197;-76
2022/05/13 10:22:28;;;;;;;0.30;0.30;;;19.70;82.20;;;;;;5060607;28;20228;-76
2022/05/13 10:25:03;;;;;;;0.20;0.20;;;19.10;80.80;;;;;;5085331;28;20243;-78
2022/05/13 10:27:50;;;;;;;0.60;0.60;;;19.50;86.00;;;;;;5053026;28;20189;-76
2022/05/13 10:30:26;;;;;;;0.22;0.22;;;18.90;83.00;;;;;;5086133;28;20292;-76
2022/05/13 10:33:02;;;;;;;0.15;0.15;;;18.80;87.10;;;;;;5059687;28;20252;-77
2022/05/13 10:35:34;;;;;;;0.20;0.20;;;19.10;87.00;;;;;;5073211;28;20192;-77
2022/05/13 10:38:12;;;;;;;0.28;0.28;;;18.80;81.60;;;;;;5072277;28;20599;-78
2022/05/13 10:40:43;;;;;;;0.30;0.30;;;19.20;83.20;;;;;;5071694;28;20227;-79
2022/05/13 10:43:19;;;;;;;0.20;0.20;;;20.00;82.40;;;;;;5073366;28;20195;-77
2022/05/13 10:45:45;;;;;;;0.30;0.30;;;20.70;79.90;;;;;;5053092;28;20699;-77
2022/05/13 10:48:11;;;;;;;3.30;0.65;;;20.50;79.30;;;;;;5051885;28;20609;-77
2022/05/13 10:51:00;;;;;;;1.98;0.60;;;20.10;82.90;;;;;;5052667;28;20189;-77
2022/05/13 10:53:39;;;;;;;0.20;0.20;;;20.40;79.80;;;;;;5051805;28;20194;-77
2022/05/13 10:56:04;;;;;;;0.20;0.20;;;20.40;81.40;;;;;;5052788;28;20212;-75
2022/05/13 10:58:49;;;;;;;0.38;0.38;;;20.20;78.50;;;;;;5050899;28;20197;-75
2022/05/13 11:01:32;;;;;;;0.28;0.28;;;19.10;80.20;;;;;;5051226;28;20312;-76
2022/05/13 11:04:23;;;;;;;0.20;0.20;;;18.60;82.40;;;;;;5054469;28;20204;-76
2022/05/13 11:07:07;;;;;;;2.58;0.50;;;18.60;85.30;;;;;;5056199;28;20220;-76
2022/05/13 11:09:50;;;;;;;0.20;0.20;;;18.90;80.20;;;;;;5056375;28;20273;-76
2022/05/13 11:12:53;;;;;;;0.75;0.38;;;19.50;84.10;;;;;;5055371;28;20201;-77
2022/05/13 11:15:49;;;;;;;0.40;0.30;;;20.10;79.80;;;;;;5055465;28;20228;-77
2022/05/13 11:18:35;;;;;;;0.20;0.20;;;20.40;78.40;;;;;;5056372;28;20210;-76
2022/05/13 11:21:19;;;;;;;0.20;0.20;;;19.90;79.50;;;;;;5072970;28;20248;-76
2022/05/13 11:25:54;;;;;;;0.65;0.65;;;19.40;79.50;;;;;;5075365;28;20205;-77
2022/05/13 11:26:41;;;;;;;0.30;0.30;;;18.60;80.40;;;;;;5076370;28;20318;-76
2022/05/13 11:29:10;;;;;;;0.20;0.20;;;18.10;84.90;;;;;;5067799;28;20189;-76
2022/05/13 11:31:36;;;;;;;0.30;0.30;;;17.50;86.60;;;;;;5071281;28;20288;-76
2022/05/13 11:34:16;;;;;;;0.70;0.45;;;18.10;81.20;;;;;;5055975;28;20225;-76
2022/05/13 11:37:03;;;;;;;0.20;0.20;;;18.50;82.80;;;;;;5055054;28;20664;-76
2022/05/13 11:39:44;;;;;;;0.20;0.20;;;19.40;83.90;;;;;;5056160;28;20185;-77
2022/05/13 11:45:52;;;;;;;0.20;0.20;;;19.20;81.70;;;;;;5055807;28;20213;-76
2022/05/13 11:48:29;;;;;;;0.20;0.20;;;19.40;84.70;;;;;;5065258;28;20678;-77
2022/05/13 11:51:22;;;;;;;0.30;0.30;;;20.30;81.80;;;;;;5075052;28;20219;-78
2022/05/13 11:54:03;;;;;;;7.38;0.57;;;20.70;79.20;;;;;;5074738;28;20288;-77
2022/05/13 11:56:33;;;;;;;0.90;0.57;;;20.60;78.60;;;;;;5058466;28;20680;-77
2022/05/13 11:59:11;;;;;;;6.93;1.27;;;20.40;80.80;;;;;;5054352;28;20568;-77
2022/05/13 12:02:07;;;;;;;0.20;0.20;;;20.40;81.20;;;;;;5055575;28;20197;-77
2022/05/13 12:05:05;;;;;;;1.45;0.60;;;20.80;80.90;;;;;;5054352;28;20205;-75
2022/05/13 12:08:08;;;;;;;0.63;0.57;;;20.60;83.90;;;;;;5048817;28;20282;-77
2022/05/13 12:10:42;;;;;;;0.40;0.40;;;20.80;82.70;;;;;;5074176;28;20200;-77
2022/05/13 12:13:14;;;;;;;0.30;0.30;;;20.30;83.00;;;;;;5074273;28;20192;-77
2022/05/13 12:15:58;;;;;;;0.20;0.20;;;20.20;81.50;;;;;;5055715;28;20209;-78
2022/05/13 12:18:41;;;;;;;0.30;0.30;;;19.90;84.00;;;;;;5087572;28;20197;-78
2022/05/13 12:21:06;;;;;;;0.20;0.20;;;19.20;82.50;;;;;;5055354;28;20190;-78
2022/05/13 12:23:53;;;;;;;0.52;0.52;;;18.90;86.30;;;;;;5055564;28;20268;-77
2022/05/13 12:26:44;;;;;;;0.30;0.30;;;19.50;85.30;;;;;;5054819;28;20236;-76
2022/05/13 12:29:41;;;;;;;0.20;0.20;;;19.30;84.80;;;;;;5055302;28;20216;-76
2022/05/13 12:32:19;;;;;;;0.30;0.30;;;19.60;83.90;;;;;;5055066;28;20264;-77
2022/05/13 12:37:45;;;;;;;0.30;0.30;;;18.60;84.80;;;;;;5070397;28;20328;-77
2022/05/13 12:40:11;;;;;;;0.20;0.20;;;17.90;89.30;;;;;;5074909;28;20640;-77
2022/05/13 12:42:46;;;;;;;0.30;0.30;;;18.00;89.10;;;;;;5073346;28;20570;-77
2022/05/13 12:45:21;;;;;;;0.20;0.20;;;18.50;89.60;;;;;;5074570;28;20675;-78
2022/05/13 12:48:08;;;;;;;0.20;0.20;;;18.40;88.80;;;;;;5073663;28;20196;-78
2022/05/13 12:50:45;;;;;;;0.35;0.35;;;18.40;87.90;;;;;;5074492;28;20283;-77
2022/05/13 12:53:33;;;;;;;2.08;1.00;;;18.60;88.70;;;;;;5073281;28;20196;-76
2022/05/13 12:56:19;;;;;;;0.20;0.20;;;18.90;87.10;;;;;;5072921;28;20192;-77
2022/05/13 12:58:48;;;;;;;0.30;0.30;;;18.90;87.50;;;;;;5073386;28;20221;-73
2022/05/13 13:01:16;;;;;;;0.30;0.30;;;18.60;86.50;;;;;;5073501;28;20671;-74
2022/05/13 13:03:50;;;;;;;0.20;0.20;;;18.70;87.80;;;;;;5073129;28;20206;-73
2022/05/13 13:06:21;;;;;;;0.35;0.35;;;18.00;87.80;;;;;;5073182;28;20270;-73
2022/05/13 13:08:51;;;;;;;0.22;0.22;;;17.70;90.00;;;;;;5073257;28;20699;-73
2022/05/13 13:11:29;;;;;;;1.85;0.75;;;16.90;90.60;;;;;;5074254;28;20672;-72
2022/05/13 13:14:16;;;;;;;0.25;0.25;;;16.30;94.90;;;;;;5074661;28;20605;-69
2022/05/13 13:17:02;;;;;;;0.30;0.30;;;15.50;97.70;;;;;;5074420;28;20563;-70
2022/05/13 13:19:30;;;;;;;0.50;0.50;;;14.90;99.90;;;;;;5074058;28;20192;-70
2022/05/13 13:22:00;;;;;;;0.45;0.45;;;14.70;99.90;;;;;;5063282;28;20225;-71
2022/05/13 13:24:30;;;;;;;0.40;0.40;;;14.60;99.90;;;;;;5052962;28;20197;-71
2022/05/13 13:26:57;;;;;;;0.30;0.30;;;14.60;99.90;;;;;;5053407;28;20209;-71
2022/05/13 13:29:35;;;;;;;1.75;1.30;;;14.80;99.90;;;;;;5053641;28;20246;-71
2022/05/13 13:32:07;;;;;;;0.30;0.30;;;15.00;99.90;;;;;;5053801;28;20189;-73
2022/05/13 13:34:37;;;;;;;0.57;0.57;;;15.30;99.90;;;;;;5053743;28;20233;-72
2022/05/13 13:37:08;;;;;;;0.30;0.30;;;15.60;99.90;;;;;;5054278;28;20241;-72
2022/05/13 13:39:33;;;;;;;0.30;0.30;;;15.80;99.90;;;;;;5054311;28;20328;-72
2022/05/13 13:42:03;;;;;;;0.30;0.30;;;16.20;99.90;;;;;;5073158;28;20671;-73
2022/05/13 13:44:28;;;;;;;0.30;0.30;;;16.20;99.90;;;;;;5073359;28;20189;-72
2022/05/13 13:46:54;;;;;;;0.30;0.30;;;16.10;99.90;;;;;;5073927;28;20216;-72